Time;durP1;ratioP1;P1;durP2;ratioP2;P2;SDS_P1;SDS_P2;PMS_P1;PMS_P2;Temp;Humidity;BMP_temperature;BMP_pressure;BME280_temperature;BME280_humidity;BME280_pressure;Samples;Min_cycle;Max_cycle;Signal;HPM_P1;HPM_P2
2020/12/04 00:01:20;;;;;;;55.03;22.65;;;;;;;;;;5066886;28;20711;-61
2020/12/04 00:03:46;;;;;;;51.40;21.55;;;;;;;;;;5079330;28;20030;-61
2020/12/04 00:06:13;;;;;;;53.05;22.73;;;;;;;;;;5081088;28;20464;-61
2020/12/04 00:08:38;;;;;;;51.28;21.92;;;;;;;;;;5068401;28;20020;-60
2020/12/04 00:11:04;;;;;;;46.33;20.42;;;;;;;;;;5074225;28;20460;-61
2020/12/04 00:13:30;;;;;;;54.05;22.00;;;;;;;;;;5087535;28;20475;-61
2020/12/04 00:15:56;;;;;;;51.22;21.77;;;;;;;;;;5083537;28;20032;-59
2020/12/04 00:18:22;;;;;;;49.08;21.60;;;;;;;;;;5075246;28;20035;-60
2020/12/04 00:20:48;;;;;;;54.22;21.48;;;;;;;;;;5085390;28;20024;-60
2020/12/04 00:23:14;;;;;;;52.13;23.17;;;;;;;;;;5084579;28;20032;-61
2020/12/04 00:25:40;;;;;;;45.08;20.45;;;;;;;;;;5073372;28;20025;-61
2020/12/04 00:28:06;;;;;;;52.10;21.73;;;;;;;;;;5059452;28;20033;-61
2020/12/04 00:30:32;;;;;;;51.72;21.90;;;;;;;;;;5075151;28;20020;-61
2020/12/04 00:32:58;;;;;;;54.40;22.02;;;;;;;;;;5083347;28;20452;-61
2020/12/04 00:35:24;;;;;;;52.22;22.70;;;;;;;;;;5081789;28;20687;-60
2020/12/04 00:37:50;;;;;;;51.55;22.17;;;;;;;;;;5076149;28;20494;-61
2020/12/04 00:40:16;;;;;;;52.63;23.45;;;;;;;;;;5069984;28;20456;-61
2020/12/04 00:42:45;;;;;;;52.88;23.42;;;;;;;;;;5088752;28;20815;-61
2020/12/04 00:45:11;;;;;;;56.13;23.50;;;;;;;;;;5088456;28;20119;-61
2020/12/04 00:47:36;;;;;;;50.38;22.40;;;;;;;;;;5074133;28;20078;-59
2020/12/04 00:50:03;;;;;;;59.33;23.52;;;;;;;;;;5084665;28;20020;-61
2020/12/04 00:52:29;;;;;;;55.00;23.02;;;;;;;;;;5088731;28;20211;-61
2020/12/04 00:54:55;;;;;;;52.83;22.95;;;;;;;;;;5087847;28;20442;-61
2020/12/04 00:57:21;;;;;;;60.20;24.30;;;;;;;;;;5085135;28;20034;-61
2020/12/04 00:59:47;;;;;;;62.97;24.48;;;;;;;;;;5069614;28;20032;-60
2020/12/04 01:02:13;;;;;;;56.10;23.38;;;;;;;;;;5087798;28;20074;-60
2020/12/04 01:04:39;;;;;;;56.63;24.05;;;;;;;;;;5086636;28;20038;-61
2020/12/04 01:07:06;;;;;;;55.50;22.77;;;;;;;;;;5087412;28;20042;-61
2020/12/04 01:09:32;;;;;;;58.20;23.42;;;;;;;;;;5070138;28;20115;-61
2020/12/04 01:11:58;;;;;;;54.50;22.33;;;;;;;;;;5086128;28;20111;-61
2020/12/04 01:14:24;;;;;;;53.85;23.00;;;;;;;;;;5086166;28;20021;-61
2020/12/04 01:16:50;;;;;;;56.63;23.27;;;;;;;;;;5077447;28;20356;-61
2020/12/04 01:19:16;;;;;;;55.33;23.58;;;;;;;;;;5060053;28;20041;-61
2020/12/04 01:21:42;;;;;;;56.03;24.45;;;;;;;;;;5075833;28;20027;-61
2020/12/04 01:24:08;;;;;;;54.63;23.85;;;;;;;;;;5073243;28;20480;-61
2020/12/04 01:26:34;;;;;;;53.22;23.38;;;;;;;;;;5086863;28;20016;-61
2020/12/04 01:29:00;;;;;;;55.40;22.58;;;;;;;;;;5078632;28;20025;-61
2020/12/04 01:31:26;;;;;;;58.25;22.23;;;;;;;;;;5077107;28;20020;-61
2020/12/04 01:33:52;;;;;;;53.95;22.92;;;;;;;;;;5086651;28;20089;-60
2020/12/04 01:36:18;;;;;;;51.00;21.70;;;;;;;;;;5086734;28;20032;-61
2020/12/04 01:38:44;;;;;;;58.38;23.70;;;;;;;;;;5084320;28;20040;-61
2020/12/04 01:41:10;;;;;;;55.97;23.13;;;;;;;;;;5075548;28;20024;-60
2020/12/04 01:43:36;;;;;;;52.83;23.48;;;;;;;;;;5087958;28;20035;-60
2020/12/04 01:46:02;;;;;;;50.45;21.90;;;;;;;;;;5068670;28;20021;-61
2020/12/04 01:48:28;;;;;;;53.55;24.38;;;;;;;;;;5080947;28;20028;-61
2020/12/04 01:50:54;;;;;;;57.30;22.98;;;;;;;;;;5069968;28;20025;-60
2020/12/04 01:53:20;;;;;;;59.78;23.30;;;;;;;;;;5074139;28;20108;-61
2020/12/04 01:55:46;;;;;;;50.72;22.20;;;;;;;;;;5090322;28;20561;-61
2020/12/04 01:58:13;;;;;;;55.45;23.38;;;;;;;;;;5073491;28;20039;-60
2020/12/04 02:00:39;;;;;;;59.60;24.48;;;;;;;;;;5076664;28;20051;-61
2020/12/04 02:03:07;;;;;;;55.85;22.58;;;;;;;;;;5088231;28;20085;-60
2020/12/04 02:05:34;;;;;;;52.85;22.80;;;;;;;;;;5090076;28;20059;-61
2020/12/04 02:08:08;;;;;;;51.28;22.55;;;;;;;;;;5072908;28;20138;-61
2020/12/04 02:10:38;;;;;;;49.97;21.95;;;;;;;;;;5066934;28;20024;-60
2020/12/04 02:13:05;;;;;;;54.13;22.90;;;;;;;;;;5088119;28;20028;-60
2020/12/04 02:15:32;;;;;;;54.00;22.27;;;;;;;;;;5091498;28;20020;-60
2020/12/04 02:17:59;;;;;;;50.25;21.25;;;;;;;;;;5087953;28;20029;-60
2020/12/04 02:20:25;;;;;;;51.13;21.30;;;;;;;;;;5080357;28;20039;-61
2020/12/04 02:22:51;;;;;;;51.28;22.48;;;;;;;;;;5088113;28;20542;-61
2020/12/04 02:25:17;;;;;;;50.75;22.08;;;;;;;;;;5088679;28;20411;-61
2020/12/04 02:27:49;;;;;;;52.88;22.15;;;;;;;;;;5089655;28;20467;-60
2020/12/04 02:30:18;;;;;;;49.20;23.30;;;;;;;;;;5085956;28;20024;-61
2020/12/04 02:32:44;;;;;;;53.13;21.75;;;;;;;;;;5068114;28;20082;-61
2020/12/04 02:35:10;;;;;;;53.10;22.85;;;;;;;;;;5071666;28;20016;-60
2020/12/04 02:37:36;;;;;;;48.55;22.25;;;;;;;;;;5085100;28;20039;-60
2020/12/04 02:40:02;;;;;;;51.55;22.55;;;;;;;;;;5078094;28;20032;-59
2020/12/04 02:42:28;;;;;;;49.05;22.17;;;;;;;;;;5073975;28;20383;-57
2020/12/04 02:44:54;;;;;;;53.55;23.33;;;;;;;;;;5064787;28;20036;-61
2020/12/04 02:47:24;;;;;;;48.63;22.70;;;;;;;;;;5086804;28;20513;-60
2020/12/04 02:49:50;;;;;;;61.55;23.88;;;;;;;;;;5077455;28;20024;-60
2020/12/04 02:52:19;;;;;;;55.17;24.70;;;;;;;;;;5051618;28;20079;-61
2020/12/04 02:54:45;;;;;;;53.30;24.42;;;;;;;;;;5087411;28;20036;-61
2020/12/04 02:57:10;;;;;;;58.35;25.10;;;;;;;;;;5060481;28;20024;-60
2020/12/04 02:59:36;;;;;;;59.35;25.17;;;;;;;;;;5063646;28;20029;-61
2020/12/04 03:02:02;;;;;;;56.95;24.83;;;;;;;;;;5075304;28;20054;-61
2020/12/04 03:04:28;;;;;;;55.70;24.33;;;;;;;;;;5078055;28;20036;-61
2020/12/04 03:06:54;;;;;;;56.92;24.73;;;;;;;;;;5084713;28;20404;-59
2020/12/04 03:09:20;;;;;;;60.72;25.33;;;;;;;;;;5082948;28;20452;-60
2020/12/04 03:11:46;;;;;;;63.95;26.60;;;;;;;;;;5087983;28;20654;-60
2020/12/04 03:14:12;;;;;;;60.90;25.65;;;;;;;;;;5070823;28;20039;-61
2020/12/04 03:16:38;;;;;;;58.78;26.50;;;;;;;;;;5087720;28;20043;-61
2020/12/04 03:19:04;;;;;;;62.65;26.38;;;;;;;;;;5088652;28;20510;-60
2020/12/04 03:21:30;;;;;;;59.95;25.85;;;;;;;;;;5090092;28;20020;-61
2020/12/04 03:23:56;;;;;;;59.05;24.83;;;;;;;;;;5087181;28;20036;-60
2020/12/04 03:26:22;;;;;;;56.33;25.23;;;;;;;;;;5071668;28;20532;-61
2020/12/04 03:28:48;;;;;;;62.63;27.45;;;;;;;;;;5081621;28;20024;-61
2020/12/04 03:31:14;;;;;;;58.05;26.80;;;;;;;;;;5089683;28;20478;-61
2020/12/04 03:33:40;;;;;;;61.95;26.55;;;;;;;;;;5051491;28;20044;-59
2020/12/04 03:36:06;;;;;;;58.00;26.35;;;;;;;;;;5082295;28;20487;-61
2020/12/04 03:38:32;;;;;;;63.30;27.10;;;;;;;;;;5070652;28;20490;-61
2020/12/04 03:40:58;;;;;;;60.10;26.92;;;;;;;;;;5077753;28;20020;-60
2020/12/04 03:43:24;;;;;;;57.90;26.42;;;;;;;;;;5089408;28;20417;-61
2020/12/04 03:45:50;;;;;;;63.28;27.38;;;;;;;;;;5087286;28;20372;-61
2020/12/04 03:48:16;;;;;;;65.00;27.58;;;;;;;;;;5087986;28;20990;-59
2020/12/04 03:50:42;;;;;;;61.42;26.52;;;;;;;;;;5086919;28;20088;-60
2020/12/04 03:53:08;;;;;;;61.00;27.30;;;;;;;;;;5087984;28;20410;-60
2020/12/04 03:55:34;;;;;;;64.97;27.80;;;;;;;;;;5073512;28;20491;-61
2020/12/04 03:58:00;;;;;;;57.10;26.15;;;;;;;;;;5080259;28;20144;-61
2020/12/04 04:00:26;;;;;;;62.30;27.42;;;;;;;;;;5072901;28;20052;-61
2020/12/04 04:02:52;;;;;;;57.10;26.77;;;;;;;;;;5085529;28;20363;-59
2020/12/04 04:05:18;;;;;;;63.33;27.58;;;;;;;;;;5080381;28;20024;-60
2020/12/04 04:07:44;;;;;;;61.65;26.75;;;;;;;;;;5074906;28;20371;-59
2020/12/04 04:10:10;;;;;;;53.22;24.83;;;;;;;;;;5061127;28;20040;-60
2020/12/04 04:12:36;;;;;;;61.88;26.38;;;;;;;;;;5075643;28;20435;-60
2020/12/04 04:15:01;;;;;;;59.72;25.92;;;;;;;;;;5087191;28;20024;-60
2020/12/04 04:17:27;;;;;;;64.03;26.13;;;;;;;;;;5076377;28;20084;-60
2020/12/04 04:19:53;;;;;;;58.60;25.25;;;;;;;;;;5088870;28;20028;-60
2020/12/04 04:22:19;;;;;;;57.33;26.10;;;;;;;;;;5085391;28;20023;-59
2020/12/04 04:24:45;;;;;;;60.22;26.92;;;;;;;;;;5065121;28;20028;-61
2020/12/04 04:27:11;;;;;;;60.05;25.90;;;;;;;;;;5072861;28;20032;-60
2020/12/04 04:29:37;;;;;;;57.85;26.67;;;;;;;;;;5082675;28;20027;-60
2020/12/04 04:32:04;;;;;;;53.83;25.23;;;;;;;;;;5056723;28;20028;-60
2020/12/04 04:34:30;;;;;;;58.35;26.00;;;;;;;;;;5079387;28;20115;-60
2020/12/04 04:36:56;;;;;;;57.25;25.42;;;;;;;;;;5072747;28;20032;-60
2020/12/04 04:39:22;;;;;;;58.67;25.90;;;;;;;;;;5075720;28;20071;-60
2020/12/04 04:41:54;;;;;;;56.58;25.85;;;;;;;;;;5088452;28;20622;-60
2020/12/04 04:44:21;;;;;;;55.42;24.83;;;;;;;;;;5069220;28;20035;-60
2020/12/04 04:46:58;;;;;;;55.03;24.48;;;;;;;;;;5080770;28;20024;-59
2020/12/04 04:49:27;;;;;;;57.13;23.80;;;;;;;;;;5087180;28;20062;-60
2020/12/04 04:51:54;;;;;;;55.55;25.48;;;;;;;;;;5087459;28;20034;-60
2020/12/04 04:54:21;;;;;;;54.08;24.13;;;;;;;;;;5088754;28;20055;-60
2020/12/04 04:56:47;;;;;;;56.35;24.73;;;;;;;;;;5073451;28;20089;-60
2020/12/04 04:59:13;;;;;;;59.38;24.65;;;;;;;;;;5077613;28;20036;-61
2020/12/04 05:01:39;;;;;;;59.42;25.95;;;;;;;;;;5077315;28;20097;-60
2020/12/04 05:04:05;;;;;;;51.97;24.27;;;;;;;;;;5070096;28;20028;-60
2020/12/04 05:06:32;;;;;;;58.65;26.27;;;;;;;;;;5066921;28;20029;-61
2020/12/04 05:08:58;;;;;;;53.28;24.83;;;;;;;;;;5073054;28;20016;-61
2020/12/04 05:11:25;;;;;;;64.75;30.30;;;;;;;;;;5077200;28;20106;-60
2020/12/04 05:13:50;;;;;;;59.95;28.27;;;;;;;;;;5075663;28;20078;-60
2020/12/04 05:16:29;;;;;;;60.22;27.90;;;;;;;;;;5085935;28;20036;-60
2020/12/04 05:18:55;;;;;;;59.85;26.50;;;;;;;;;;5086754;28;20390;-60
2020/12/04 05:21:27;;;;;;;64.00;31.67;;;;;;;;;;5074110;28;20522;-60
2020/12/04 05:23:54;;;;;;;51.47;20.30;;;;;;;;;;5081825;28;20672;-61
2020/12/04 05:26:33;;;;;;;55.03;25.30;;;;;;;;;;5075826;28;20029;-60
2020/12/04 05:28:59;;;;;;;60.95;28.83;;;;;;;;;;5062466;28;20024;-60
2020/12/04 05:31:33;;;;;;;55.00;27.33;;;;;;;;;;5075855;28;20535;-60
2020/12/04 05:33:59;;;;;;;187.52;145.45;;;;;;;;;;5070610;28;20508;-60
2020/12/04 05:36:29;;;;;;;66.00;33.47;;;;;;;;;;5073294;28;20036;-60
2020/12/04 05:38:56;;;;;;;57.95;28.55;;;;;;;;;;5076655;28;20484;-61
2020/12/04 05:41:22;;;;;;;57.40;27.88;;;;;;;;;;5083634;28;20028;-60
2020/12/04 05:43:50;;;;;;;59.35;26.85;;;;;;;;;;5090235;28;20091;-60
2020/12/04 05:46:24;;;;;;;60.15;26.73;;;;;;;;;;5073846;28;20021;-60
2020/12/04 05:49:09;;;;;;;52.42;26.20;;;;;;;;;;5083290;28;20027;-59
2020/12/04 05:51:39;;;;;;;57.85;26.05;;;;;;;;;;5091901;28;20024;-60
2020/12/04 05:54:05;;;;;;;61.17;26.98;;;;;;;;;;5088145;28;20489;-60
2020/12/04 05:56:32;;;;;;;57.03;27.02;;;;;;;;;;5078704;28;20028;-61
2020/12/04 05:58:59;;;;;;;54.25;25.27;;;;;;;;;;5069425;28;20025;-61
2020/12/04 06:01:25;;;;;;;54.63;24.42;;;;;;;;;;5083117;28;20050;-61
2020/12/04 06:03:52;;;;;;;61.60;26.80;;;;;;;;;;5079873;28;20024;-60
2020/12/04 06:06:23;;;;;;;60.30;26.98;;;;;;;;;;5074472;28;20028;-61
2020/12/04 06:08:50;;;;;;;59.47;25.70;;;;;;;;;;5091543;28;20043;-60
2020/12/04 06:11:16;;;;;;;64.47;30.73;;;;;;;;;;5080565;28;20020;-61
2020/12/04 06:13:41;;;;;;;78.00;39.55;;;;;;;;;;5085399;28;20081;-60
2020/12/04 06:16:12;;;;;;;94.07;44.70;;;;;;;;;;5088892;28;20481;-61
2020/12/04 06:18:38;;;;;;;68.20;32.05;;;;;;;;;;5075917;28;20505;-60
2020/12/04 06:21:04;;;;;;;61.90;28.40;;;;;;;;;;5071799;28;20459;-60
2020/12/04 06:23:30;;;;;;;55.10;25.33;;;;;;;;;;5070230;28;20027;-61
2020/12/04 06:25:57;;;;;;;69.53;34.22;;;;;;;;;;5075859;28;20028;-60
2020/12/04 06:28:25;;;;;;;77.43;37.60;;;;;;;;;;5072788;28;20028;-61
2020/12/04 06:30:58;;;;;;;62.80;30.95;;;;;;;;;;5066145;28;20816;-61
2020/12/04 06:33:35;;;;;;;64.90;28.77;;;;;;;;;;5068598;28;20044;-60
2020/12/04 06:36:01;;;;;;;76.13;34.90;;;;;;;;;;5070652;28;20036;-60
2020/12/04 06:38:36;;;;;;;53.10;25.23;;;;;;;;;;5069795;28;20059;-61
2020/12/04 06:41:22;;;;;;;54.10;24.63;;;;;;;;;;5070538;28;20353;-60
2020/12/04 06:43:49;;;;;;;52.30;23.15;;;;;;;;;;5069659;28;20028;-61
2020/12/04 06:46:27;;;;;;;51.67;24.55;;;;;;;;;;5070883;28;20025;-61
2020/12/04 06:49:08;;;;;;;53.47;25.88;;;;;;;;;;5071665;28;20124;-61
2020/12/04 06:51:34;;;;;;;55.15;25.55;;;;;;;;;;5075538;28;20095;-61
2020/12/04 06:54:00;;;;;;;53.75;24.10;;;;;;;;;;5077144;28;20703;-60
2020/12/04 06:56:26;;;;;;;60.17;25.70;;;;;;;;;;5090738;28;20359;-59
2020/12/04 06:58:52;;;;;;;54.80;25.80;;;;;;;;;;5080133;28;20630;-60
2020/12/04 07:01:18;;;;;;;53.00;24.20;;;;;;;;;;5077497;28;20056;-60
2020/12/04 07:03:45;;;;;;;58.50;25.73;;;;;;;;;;5088210;28;20027;-61
2020/12/04 07:06:11;;;;;;;52.72;24.38;;;;;;;;;;5088937;28;20526;-60
2020/12/04 07:08:51;;;;;;;57.42;23.85;;;;;;;;;;5090462;28;20028;-60
2020/12/04 07:11:17;;;;;;;54.45;25.42;;;;;;;;;;5089014;28;20073;-61
2020/12/04 07:13:43;;;;;;;49.92;24.40;;;;;;;;;;5073555;28;20025;-60
2020/12/04 07:16:09;;;;;;;55.13;24.40;;;;;;;;;;5070570;28;20031;-61
2020/12/04 07:18:35;;;;;;;58.78;24.85;;;;;;;;;;5079650;28;20382;-59
2020/12/04 07:21:01;;;;;;;48.92;24.30;;;;;;;;;;5075849;28;20025;-61
2020/12/04 07:23:27;;;;;;;51.58;24.52;;;;;;;;;;5081566;28;20079;-60
2020/12/04 07:25:53;;;;;;;52.85;23.88;;;;;;;;;;5090942;28;20020;-59
2020/12/04 07:28:19;;;;;;;55.45;24.02;;;;;;;;;;5076249;28;20039;-61
2020/12/04 07:30:45;;;;;;;55.00;23.67;;;;;;;;;;5077223;28;20033;-61
2020/12/04 07:33:13;;;;;;;47.55;23.10;;;;;;;;;;5087767;28;20028;-61
2020/12/04 07:35:39;;;;;;;46.45;22.13;;;;;;;;;;5073653;28;20120;-59
2020/12/04 07:38:08;;;;;;;51.60;24.10;;;;;;;;;;5089683;28;20031;-61
2020/12/04 07:40:34;;;;;;;47.63;23.02;;;;;;;;;;5071325;28;20107;-60
2020/12/04 07:43:03;;;;;;;46.15;21.38;;;;;;;;;;5077596;28;20031;-61
2020/12/04 07:45:29;;;;;;;48.08;23.15;;;;;;;;;;5080670;28;20029;-60
2020/12/04 07:47:55;;;;;;;46.25;22.50;;;;;;;;;;5079677;28;20081;-61
2020/12/04 07:50:23;;;;;;;46.95;23.15;;;;;;;;;;5074872;28;20039;-61
2020/12/04 07:52:52;;;;;;;43.13;22.38;;;;;;;;;;5082438;28;20055;-61
2020/12/04 07:55:20;;;;;;;44.63;21.35;;;;;;;;;;5082355;28;20111;-61
2020/12/04 07:57:54;;;;;;;42.92;21.33;;;;;;;;;;5071208;28;20039;-60
2020/12/04 08:00:20;;;;;;;43.33;21.25;;;;;;;;;;5082676;28;20052;-61
2020/12/04 08:02:46;;;;;;;45.13;22.08;;;;;;;;;;5074375;28;20074;-61
2020/12/04 08:05:19;;;;;;;46.58;21.90;;;;;;;;;;5075228;28;20036;-60
2020/12/04 08:07:50;;;;;;;41.65;20.35;;;;;;;;;;5082186;28;20016;-61
2020/12/04 08:10:20;;;;;;;44.13;21.38;;;;;;;;;;5075494;28;20035;-60
2020/12/04 08:12:48;;;;;;;37.22;19.52;;;;;;;;;;5068026;28;20021;-60
2020/12/04 08:15:14;;;;;;;39.97;19.58;;;;;;;;;;5086973;28;20020;-60
2020/12/04 08:17:41;;;;;;;38.92;20.60;;;;;;;;;;5057826;28;20384;-60
2020/12/04 08:20:14;;;;;;;36.78;19.27;;;;;;;;;;5064259;28;20031;-60
2020/12/04 08:22:40;;;;;;;41.92;19.17;;;;;;;;;;5077322;28;20028;-61
2020/12/04 08:25:10;;;;;;;37.42;19.15;;;;;;;;;;5088875;28;20104;-60
2020/12/04 08:27:43;;;;;;;37.03;19.98;;;;;;;;;;5089070;28;20127;-60
2020/12/04 08:30:17;;;;;;;38.20;19.05;;;;;;;;;;5079460;28;20055;-61
2020/12/04 08:32:45;;;;;;;39.33;18.95;;;;;;;;;;5089017;28;20507;-60
2020/12/04 08:35:34;;;;;;;37.13;18.70;;;;;;;;;;5088766;28;20827;-60
2020/12/04 08:38:16;;;;;;;40.30;19.83;;;;;;;;;;5078252;28;20755;-61
2020/12/04 08:40:45;;;;;;;36.88;19.13;;;;;;;;;;5079781;28;20024;-61
2020/12/04 08:43:12;;;;;;;39.10;19.38;;;;;;;;;;5085676;28;20028;-60
2020/12/04 08:45:39;;;;;;;41.70;18.77;;;;;;;;;;5088682;28;20024;-60
2020/12/04 08:48:10;;;;;;;35.88;18.52;;;;;;;;;;5088799;28;20027;-60
2020/12/04 08:50:44;;;;;;;40.70;18.48;;;;;;;;;;5088817;28;20031;-62
2020/12/04 08:53:11;;;;;;;36.83;18.00;;;;;;;;;;5088662;28;20029;-62
2020/12/04 08:55:38;;;;;;;35.20;17.60;;;;;;;;;;5083520;28;20046;-61
2020/12/04 08:58:04;;;;;;;36.83;18.50;;;;;;;;;;5088589;28;20534;-62
2020/12/04 09:00:33;;;;;;;36.22;18.35;;;;;;;;;;5091140;28;20548;-62
2020/12/04 09:02:59;;;;;;;35.72;17.65;;;;;;;;;;5081181;28;20429;-62
2020/12/04 09:05:25;;;;;;;33.38;16.77;;;;;;;;;;5085445;28;20493;-62
2020/12/04 09:07:51;;;;;;;32.00;16.88;;;;;;;;;;5076774;28;20028;-60
2020/12/04 09:10:17;;;;;;;34.92;17.08;;;;;;;;;;5085290;28;20027;-62
2020/12/04 09:12:44;;;;;;;34.95;18.05;;;;;;;;;;5092559;28;20101;-62
2020/12/04 09:15:11;;;;;;;31.48;16.98;;;;;;;;;;5092276;28;20039;-62
2020/12/04 09:17:37;;;;;;;29.70;15.93;;;;;;;;;;5092223;28;20513;-61
2020/12/04 09:20:04;;;;;;;32.95;16.05;;;;;;;;;;5078521;28;20020;-62
2020/12/04 09:22:30;;;;;;;28.58;15.95;;;;;;;;;;5079350;28;20062;-62
2020/12/04 09:24:57;;;;;;;31.85;17.15;;;;;;;;;;5092182;28;20024;-62
2020/12/04 09:27:23;;;;;;;30.08;16.58;;;;;;;;;;5083311;28;20532;-62
2020/12/04 09:29:49;;;;;;;31.73;16.48;;;;;;;;;;5092065;28;20024;-62
2020/12/04 09:32:17;;;;;;;33.78;15.43;;;;;;;;;;5082092;28;20483;-62
2020/12/04 09:34:44;;;;;;;33.58;17.55;;;;;;;;;;5086369;28;20070;-62
2020/12/04 09:37:21;;;;;;;38.13;17.33;;;;;;;;;;5092296;28;20032;-62
2020/12/04 09:39:48;;;;;;;26.55;15.88;;;;;;;;;;5092022;28;20032;-62
2020/12/04 09:42:15;;;;;;;29.45;15.57;;;;;;;;;;5092071;28;20038;-62
2020/12/04 09:44:41;;;;;;;30.50;15.27;;;;;;;;;;5079356;28;20045;-62
2020/12/04 09:47:07;;;;;;;37.70;16.45;;;;;;;;;;5081478;28;20074;-62
2020/12/04 09:49:33;;;;;;;33.15;16.10;;;;;;;;;;5091909;28;20034;-62
2020/12/04 09:52:00;;;;;;;29.33;16.02;;;;;;;;;;5092045;28;20027;-62
2020/12/04 09:54:29;;;;;;;28.42;15.55;;;;;;;;;;5091731;28;20085;-62
2020/12/04 09:56:55;;;;;;;32.15;16.67;;;;;;;;;;5084039;28;20028;-62
2020/12/04 09:59:22;;;;;;;31.15;15.57;;;;;;;;;;5088218;28;20044;-62
2020/12/04 10:01:57;;;;;;;36.00;15.38;;;;;;;;;;5091446;28;20135;-62
2020/12/04 10:04:24;;;;;;;30.77;14.95;;;;;;;;;;5082750;28;20043;-62
2020/12/04 10:06:50;;;;;;;34.42;16.67;;;;;;;;;;5091679;28;20020;-62
2020/12/04 10:09:16;;;;;;;31.23;16.45;;;;;;;;;;5086687;28;20424;-62
2020/12/04 10:11:42;;;;;;;28.38;15.77;;;;;;;;;;5082961;28;20016;-62
2020/12/04 10:14:08;;;;;;;27.67;15.32;;;;;;;;;;5091104;28;20078;-62
2020/12/04 10:16:35;;;;;;;31.83;16.17;;;;;;;;;;5085092;28;20656;-62
2020/12/04 10:19:01;;;;;;;31.58;16.85;;;;;;;;;;5091206;28;20024;-62
2020/12/04 10:21:27;;;;;;;32.25;15.82;;;;;;;;;;5090497;28;20047;-62
2020/12/04 10:23:56;;;;;;;28.00;15.07;;;;;;;;;;5060696;28;20046;-62
2020/12/04 10:26:22;;;;;;;33.63;16.58;;;;;;;;;;5091124;28;20204;-62
2020/12/04 10:28:48;;;;;;;33.38;16.85;;;;;;;;;;5091476;28;20122;-62
2020/12/04 10:31:15;;;;;;;29.30;15.40;;;;;;;;;;5091280;28;20374;-62
2020/12/04 10:33:41;;;;;;;32.03;15.70;;;;;;;;;;5090999;28;20088;-62
2020/12/04 10:36:07;;;;;;;30.27;16.05;;;;;;;;;;5071252;28;20483;-62
2020/12/04 10:38:34;;;;;;;31.13;15.60;;;;;;;;;;5089921;28;20082;-62
2020/12/04 10:40:59;;;;;;;28.40;15.18;;;;;;;;;;5088756;28;20024;-62
2020/12/04 10:43:26;;;;;;;27.50;15.10;;;;;;;;;;5061919;28;20100;-62
2020/12/04 10:45:52;;;;;;;30.02;15.88;;;;;;;;;;5078288;28;20411;-62
2020/12/04 10:48:18;;;;;;;27.35;15.30;;;;;;;;;;5072905;28;20028;-62
2020/12/04 10:50:45;;;;;;;34.10;16.67;;;;;;;;;;5083183;28;20344;-62
2020/12/04 10:53:11;;;;;;;27.30;15.30;;;;;;;;;;5090653;28;20626;-62
2020/12/04 10:55:37;;;;;;;28.02;15.38;;;;;;;;;;5090666;28;20101;-62
2020/12/04 10:58:03;;;;;;;29.02;15.90;;;;;;;;;;5090461;28;20071;-62
2020/12/04 11:00:29;;;;;;;30.83;15.38;;;;;;;;;;5063123;28;20186;-62
2020/12/04 11:03:04;;;;;;;29.63;16.05;;;;;;;;;;5084833;28;20028;-62
2020/12/04 11:08:05;;;;;;;29.95;15.23;;;;;;;;;;5090424;28;20020;-62
2020/12/04 11:10:30;;;;;;;29.05;15.07;;;;;;;;;;5090079;28;20024;-62
2020/12/04 11:12:56;;;;;;;28.42;15.02;;;;;;;;;;5081616;28;20085;-62
2020/12/04 11:15:22;;;;;;;28.35;13.70;;;;;;;;;;5081933;28;20450;-62
2020/12/04 11:17:48;;;;;;;30.17;14.80;;;;;;;;;;5063280;28;20020;-62
2020/12/04 11:20:16;;;;;;;31.95;17.85;;;;;;;;;;5056526;28;20040;-62
2020/12/04 11:22:42;;;;;;;27.38;13.77;;;;;;;;;;5077672;28;20578;-62
2020/12/04 11:25:09;;;;;;;29.38;15.88;;;;;;;;;;5078374;28;20025;-62
2020/12/04 11:27:39;;;;;;;28.35;15.63;;;;;;;;;;5081030;28;20027;-61
2020/12/04 11:30:05;;;;;;;25.65;13.65;;;;;;;;;;5083773;28;20613;-62
2020/12/04 11:32:33;;;;;;;25.67;14.63;;;;;;;;;;5071904;28;20020;-62
2020/12/04 11:34:59;;;;;;;28.15;14.38;;;;;;;;;;5085496;28;20032;-62
2020/12/04 11:37:25;;;;;;;26.13;14.05;;;;;;;;;;5084892;28;20043;-62
2020/12/04 11:39:51;;;;;;;27.20;14.68;;;;;;;;;;5090024;28;20036;-62
2020/12/04 11:42:17;;;;;;;27.35;14.65;;;;;;;;;;5072946;28;20039;-62
2020/12/04 11:44:43;;;;;;;27.77;14.18;;;;;;;;;;5073309;28;20036;-62
2020/12/04 11:47:09;;;;;;;27.80;13.82;;;;;;;;;;5071176;28;20021;-62
2020/12/04 11:49:35;;;;;;;27.85;14.43;;;;;;;;;;5083320;28;20040;-62
2020/12/04 11:52:01;;;;;;;23.23;14.23;;;;;;;;;;5077475;28;20028;-62
2020/12/04 11:54:28;;;;;;;24.63;13.65;;;;;;;;;;5072547;28;20094;-62
2020/12/04 11:56:54;;;;;;;23.63;13.02;;;;;;;;;;5086198;28;20041;-62
2020/12/04 11:59:20;;;;;;;24.77;13.27;;;;;;;;;;5069038;28;20499;-62
2020/12/04 12:01:46;;;;;;;23.67;13.35;;;;;;;;;;5068892;28;20070;-62
2020/12/04 12:04:14;;;;;;;25.15;13.93;;;;;;;;;;5063354;28;20064;-62
2020/12/04 12:06:41;;;;;;;23.60;13.90;;;;;;;;;;5059267;28;20066;-62
2020/12/04 12:09:07;;;;;;;23.17;12.93;;;;;;;;;;5059666;28;20024;-62
2020/12/04 12:11:33;;;;;;;24.45;13.18;;;;;;;;;;5063041;28;20056;-62
2020/12/04 12:13:59;;;;;;;24.70;13.43;;;;;;;;;;5066660;28;20359;-62
2020/12/04 12:16:26;;;;;;;25.92;14.40;;;;;;;;;;5061851;28;20025;-60
2020/12/04 12:18:52;;;;;;;28.75;15.60;;;;;;;;;;5052828;28;20051;-62
2020/12/04 12:21:18;;;;;;;23.10;13.50;;;;;;;;;;5058338;28;20602;-62
2020/12/04 12:23:44;;;;;;;27.95;13.98;;;;;;;;;;5067691;28;20027;-62
2020/12/04 12:26:14;;;;;;;23.63;13.07;;;;;;;;;;5077887;28;20040;-62
2020/12/04 12:28:40;;;;;;;25.65;14.13;;;;;;;;;;5078321;28;20026;-62
2020/12/04 12:31:07;;;;;;;27.52;13.98;;;;;;;;;;5079106;28;20055;-62
2020/12/04 12:33:33;;;;;;;26.38;14.75;;;;;;;;;;5072768;28;20031;-62
2020/12/04 12:35:59;;;;;;;25.25;14.00;;;;;;;;;;5068950;28;20114;-61
2020/12/04 12:38:25;;;;;;;25.08;13.52;;;;;;;;;;5064553;28;20720;-62
2020/12/04 12:40:51;;;;;;;167.50;96.40;;;;;;;;;;5060472;28;20036;-62
2020/12/04 12:43:17;;;;;;;42.55;25.15;;;;;;;;;;5062990;28;20035;-62
2020/12/04 12:45:43;;;;;;;41.47;24.48;;;;;;;;;;5066979;28;20044;-62
2020/12/04 12:48:10;;;;;;;26.67;14.40;;;;;;;;;;5063584;28;20032;-62
2020/12/04 12:50:36;;;;;;;25.08;14.30;;;;;;;;;;5063140;28;20055;-62
2020/12/04 12:53:02;;;;;;;25.17;14.15;;;;;;;;;;5063288;28;20038;-62
2020/12/04 12:55:28;;;;;;;30.63;19.88;;;;;;;;;;5068358;28;20123;-62
2020/12/04 12:57:54;;;;;;;26.67;14.68;;;;;;;;;;5075197;28;20594;-62
2020/12/04 13:00:20;;;;;;;23.63;14.05;;;;;;;;;;5074682;28;20044;-62
2020/12/04 13:02:46;;;;;;;33.42;19.10;;;;;;;;;;5061432;28;20040;-62
2020/12/04 13:05:32;;;;;;;27.23;14.15;;;;;;;;;;5069524;28;20048;-62
2020/12/04 13:07:58;;;;;;;25.13;14.05;;;;;;;;;;5061735;28;20375;-62
2020/12/04 13:10:24;;;;;;;24.40;14.32;;;;;;;;;;5066324;28;20068;-62
2020/12/04 13:12:51;;;;;;;23.60;13.50;;;;;;;;;;5067054;28;20047;-62
2020/12/04 13:15:18;;;;;;;24.95;14.13;;;;;;;;;;5068867;28;20051;-62
2020/12/04 13:17:44;;;;;;;32.15;18.38;;;;;;;;;;5067667;28;20032;-62
2020/12/04 13:20:10;;;;;;;27.90;15.30;;;;;;;;;;5063755;28;20037;-62
2020/12/04 13:22:36;;;;;;;32.33;18.90;;;;;;;;;;5065174;28;20125;-62
2020/12/04 13:25:03;;;;;;;99.55;56.47;;;;;;;;;;5063203;28;20024;-62
2020/12/04 13:27:29;;;;;;;49.63;28.77;;;;;;;;;;5069519;28;20032;-62
2020/12/04 13:29:55;;;;;;;38.38;23.20;;;;;;;;;;5066285;28;20162;-62
2020/12/04 13:32:21;;;;;;;27.08;15.90;;;;;;;;;;5076050;28;20050;-62
2020/12/04 13:34:47;;;;;;;26.50;17.20;;;;;;;;;;5088031;28;20024;-62
2020/12/04 13:37:13;;;;;;;28.80;16.17;;;;;;;;;;5064206;28;20040;-62
2020/12/04 13:39:39;;;;;;;22.25;12.65;;;;;;;;;;5054171;28;20051;-62
2020/12/04 13:42:05;;;;;;;21.70;12.13;;;;;;;;;;5053921;28;20035;-62
2020/12/04 13:44:31;;;;;;;23.38;13.18;;;;;;;;;;5074189;28;20029;-63
2020/12/04 13:46:57;;;;;;;26.83;15.48;;;;;;;;;;5090916;28;20031;-62
2020/12/04 13:49:23;;;;;;;25.05;14.18;;;;;;;;;;5083996;28;20040;-62
2020/12/04 13:51:49;;;;;;;25.73;14.40;;;;;;;;;;5062682;28;20035;-62
2020/12/04 13:54:17;;;;;;;30.65;17.85;;;;;;;;;;5073670;28;20034;-62
2020/12/04 13:56:43;;;;;;;26.60;14.13;;;;;;;;;;5079991;28;20127;-63
2020/12/04 13:59:09;;;;;;;25.27;14.32;;;;;;;;;;5082046;28;20024;-62
2020/12/04 14:01:36;;;;;;;23.98;13.63;;;;;;;;;;5054948;28;20056;-62
2020/12/04 14:04:03;;;;;;;24.90;13.55;;;;;;;;;;5067639;28;20028;-62
2020/12/04 14:06:29;;;;;;;26.60;15.45;;;;;;;;;;5078878;28;20058;-62
2020/12/04 14:08:55;;;;;;;27.75;14.18;;;;;;;;;;5075605;28;20024;-62
2020/12/04 14:11:21;;;;;;;23.40;13.27;;;;;;;;;;5078341;28;20025;-62
2020/12/04 14:13:47;;;;;;;34.22;17.02;;;;;;;;;;5073528;28;20020;-62
2020/12/04 14:16:14;;;;;;;33.47;17.13;;;;;;;;;;5072462;28;20024;-62
2020/12/04 14:18:40;;;;;;;29.63;15.00;;;;;;;;;;5087191;28;20032;-62